sensor_id;sensor_type;location;lat;lon;timestamp;P1;durP1;ratioP1;P2;durP2;ratioP2
7783;SDS011;19359;51.402;6.778;2023-05-18T00:01:15;635.72;;;183.63;;
7783;SDS011;19359;51.402;6.778;2023-05-18T00:03:43;690.55;;;196.73;;
7783;SDS011;19359;51.402;6.778;2023-05-18T00:06:11;684.90;;;192.15;;
7783;SDS011;19359;51.402;6.778;2023-05-18T00:08:38;677.85;;;194.05;;
7783;SDS011;19359;51.402;6.778;2023-05-18T00:11:05;669.25;;;190.80;;
7783;SDS011;19359;51.402;6.778;2023-05-18T00:13:34;635.47;;;195.15;;
7783;SDS011;19359;51.402;6.778;2023-05-18T00:16:01;666.75;;;192.45;;
7783;SDS011;19359;51.402;6.778;2023-05-18T00:18:29;618.72;;;185.90;;
7783;SDS011;19359;51.402;6.778;2023-05-18T00:20:58;599.85;;;176.02;;
7783;SDS011;19359;51.402;6.778;2023-05-18T00:23:25;643.47;;;185.63;;
7783;SDS011;19359;51.402;6.778;2023-05-18T00:25:54;682.38;;;188.02;;
7783;SDS011;19359;51.402;6.778;2023-05-18T00:28:21;653.20;;;189.55;;
7783;SDS011;19359;51.402;6.778;2023-05-18T00:30:47;646.15;;;179.73;;
7783;SDS011;19359;51.402;6.778;2023-05-18T00:33:14;710.67;;;192.05;;
7783;SDS011;19359;51.402;6.778;2023-05-18T00:35:43;711.47;;;185.27;;
7783;SDS011;19359;51.402;6.778;2023-05-18T00:38:09;692.88;;;200.63;;
7783;SDS011;19359;51.402;6.778;2023-05-18T00:40:37;606.63;;;177.15;;
7783;SDS011;19359;51.402;6.778;2023-05-18T00:43:04;735.60;;;203.90;;
7783;SDS011;19359;51.402;6.778;2023-05-18T00:45:31;588.55;;;173.57;;
7783;SDS011;19359;51.402;6.778;2023-05-18T00:47:58;575.00;;;182.82;;
7783;SDS011;19359;51.402;6.778;2023-05-18T00:50:25;572.88;;;176.98;;
7783;SDS011;19359;51.402;6.778;2023-05-18T00:52:54;569.08;;;173.07;;
7783;SDS011;19359;51.402;6.778;2023-05-18T00:55:21;506.90;;;163.07;;
7783;SDS011;19359;51.402;6.778;2023-05-18T00:57:48;500.42;;;168.77;;
7783;SDS011;19359;51.402;6.778;2023-05-18T01:00:16;532.55;;;164.98;;
7783;SDS011;19359;51.402;6.778;2023-05-18T01:02:44;526.45;;;159.43;;
7783;SDS011;19359;51.402;6.778;2023-05-18T01:05:11;549.03;;;165.15;;
7783;SDS011;19359;51.402;6.778;2023-05-18T01:07:38;557.05;;;157.85;;
7783;SDS011;19359;51.402;6.778;2023-05-18T01:10:09;560.30;;;169.68;;
7783;SDS011;19359;51.402;6.778;2023-05-18T01:12:38;574.60;;;167.75;;
7783;SDS011;19359;51.402;6.778;2023-05-18T01:15:09;570.97;;;170.23;;
7783;SDS011;19359;51.402;6.778;2023-05-18T01:17:42;585.88;;;176.20;;
7783;SDS011;19359;51.402;6.778;2023-05-18T01:20:14;572.35;;;168.60;;
7783;SDS011;19359;51.402;6.778;2023-05-18T01:22:48;555.30;;;156.32;;
7783;SDS011;19359;51.402;6.778;2023-05-18T01:25:32;560.75;;;160.02;;
7783;SDS011;19359;51.402;6.778;2023-05-18T01:28:02;555.60;;;161.52;;
7783;SDS011;19359;51.402;6.778;2023-05-18T01:30:32;480.00;;;147.43;;
7783;SDS011;19359;51.402;6.778;2023-05-18T01:33:05;482.05;;;146.93;;
7783;SDS011;19359;51.402;6.778;2023-05-18T01:35:32;472.73;;;142.95;;
7783;SDS011;19359;51.402;6.778;2023-05-18T01:37:59;476.80;;;147.35;;
7783;SDS011;19359;51.402;6.778;2023-05-18T01:40:26;466.35;;;150.32;;
7783;SDS011;19359;51.402;6.778;2023-05-18T01:42:57;447.80;;;135.23;;
7783;SDS011;19359;51.402;6.778;2023-05-18T01:45:26;449.73;;;142.65;;
7783;SDS011;19359;51.402;6.778;2023-05-18T01:47:55;462.58;;;145.65;;
7783;SDS011;19359;51.402;6.778;2023-05-18T01:50:25;472.23;;;151.25;;
7783;SDS011;19359;51.402;6.778;2023-05-18T01:52:57;454.48;;;139.82;;
7783;SDS011;19359;51.402;6.778;2023-05-18T01:55:31;422.92;;;135.20;;
7783;SDS011;19359;51.402;6.778;2023-05-18T01:57:59;441.45;;;146.63;;
7783;SDS011;19359;51.402;6.778;2023-05-18T02:00:27;439.92;;;137.18;;
7783;SDS011;19359;51.402;6.778;2023-05-18T02:02:54;430.40;;;135.80;;
7783;SDS011;19359;51.402;6.778;2023-05-18T02:05:21;371.58;;;134.85;;
7783;SDS011;19359;51.402;6.778;2023-05-18T02:07:48;283.63;;;118.22;;
7783;SDS011;19359;51.402;6.778;2023-05-18T02:10:15;220.15;;;109.45;;
7783;SDS011;19359;51.402;6.778;2023-05-18T02:12:42;282.63;;;115.78;;
7783;SDS011;19359;51.402;6.778;2023-05-18T02:15:13;291.00;;;122.57;;
7783;SDS011;19359;51.402;6.778;2023-05-18T02:17:41;315.60;;;118.38;;
7783;SDS011;19359;51.402;6.778;2023-05-18T02:20:08;370.83;;;129.80;;
7783;SDS011;19359;51.402;6.778;2023-05-18T02:22:35;366.02;;;126.72;;
7783;SDS011;19359;51.402;6.778;2023-05-18T02:25:02;401.52;;;130.43;;
7783;SDS011;19359;51.402;6.778;2023-05-18T02:27:31;396.48;;;128.35;;
7783;SDS011;19359;51.402;6.778;2023-05-18T02:29:59;418.35;;;131.75;;
7783;SDS011;19359;51.402;6.778;2023-05-18T02:32:28;306.40;;;122.95;;
7783;SDS011;19359;51.402;6.778;2023-05-18T02:34:57;386.65;;;134.05;;
7783;SDS011;19359;51.402;6.778;2023-05-18T02:37:26;434.58;;;134.05;;
7783;SDS011;19359;51.402;6.778;2023-05-18T02:39:53;437.67;;;138.52;;
7783;SDS011;19359;51.402;6.778;2023-05-18T02:42:20;442.58;;;136.77;;
7783;SDS011;19359;51.402;6.778;2023-05-18T02:44:47;464.35;;;140.10;;
7783;SDS011;19359;51.402;6.778;2023-05-18T02:47:14;444.63;;;134.98;;
7783;SDS011;19359;51.402;6.778;2023-05-18T02:49:41;466.85;;;138.65;;
7783;SDS011;19359;51.402;6.778;2023-05-18T02:52:09;485.67;;;142.05;;
7783;SDS011;19359;51.402;6.778;2023-05-18T02:54:36;508.45;;;154.13;;
7783;SDS011;19359;51.402;6.778;2023-05-18T02:57:03;477.92;;;139.30;;
7783;SDS011;19359;51.402;6.778;2023-05-18T02:59:30;544.47;;;148.00;;
7783;SDS011;19359;51.402;6.778;2023-05-18T03:01:57;455.50;;;142.43;;
7783;SDS011;19359;51.402;6.778;2023-05-18T03:04:24;445.05;;;132.50;;
7783;SDS011;19359;51.402;6.778;2023-05-18T03:06:51;498.00;;;145.13;;
7783;SDS011;19359;51.402;6.778;2023-05-18T03:09:19;428.77;;;137.27;;
7783;SDS011;19359;51.402;6.778;2023-05-18T03:11:47;383.08;;;126.45;;
7783;SDS011;19359;51.402;6.778;2023-05-18T03:14:15;368.52;;;122.47;;
7783;SDS011;19359;51.402;6.778;2023-05-18T03:16:42;406.45;;;125.55;;
7783;SDS011;19359;51.402;6.778;2023-05-18T03:19:09;418.70;;;127.70;;
7783;SDS011;19359;51.402;6.778;2023-05-18T03:21:38;393.40;;;130.15;;
7783;SDS011;19359;51.402;6.778;2023-05-18T03:24:05;424.10;;;130.88;;
7783;SDS011;19359;51.402;6.778;2023-05-18T03:26:33;402.25;;;123.60;;
7783;SDS011;19359;51.402;6.778;2023-05-18T03:29:02;410.67;;;125.07;;
7783;SDS011;19359;51.402;6.778;2023-05-18T03:31:29;406.58;;;123.28;;
7783;SDS011;19359;51.402;6.778;2023-05-18T03:33:56;420.63;;;125.25;;
7783;SDS011;19359;51.402;6.778;2023-05-18T03:36:23;410.88;;;118.93;;
7783;SDS011;19359;51.402;6.778;2023-05-18T03:38:51;418.40;;;127.00;;
7783;SDS011;19359;51.402;6.778;2023-05-18T03:41:18;419.90;;;127.35;;
7783;SDS011;19359;51.402;6.778;2023-05-18T03:43:47;406.60;;;124.70;;
7783;SDS011;19359;51.402;6.778;2023-05-18T03:46:14;425.73;;;124.57;;
7783;SDS011;19359;51.402;6.778;2023-05-18T03:48:41;452.63;;;133.65;;
7783;SDS011;19359;51.402;6.778;2023-05-18T03:51:08;441.08;;;128.07;;
7783;SDS011;19359;51.402;6.778;2023-05-18T03:53:35;461.52;;;130.10;;
7783;SDS011;19359;51.402;6.778;2023-05-18T03:56:02;462.73;;;127.07;;
7783;SDS011;19359;51.402;6.778;2023-05-18T03:58:29;462.55;;;138.95;;
7783;SDS011;19359;51.402;6.778;2023-05-18T04:00:57;414.42;;;120.40;;
7783;SDS011;19359;51.402;6.778;2023-05-18T04:03:24;472.48;;;143.50;;
7783;SDS011;19359;51.402;6.778;2023-05-18T04:05:51;448.52;;;126.20;;
7783;SDS011;19359;51.402;6.778;2023-05-18T04:08:19;466.60;;;137.68;;
7783;SDS011;19359;51.402;6.778;2023-05-18T04:10:49;455.75;;;133.27;;
7783;SDS011;19359;51.402;6.778;2023-05-18T04:13:16;471.08;;;143.80;;
7783;SDS011;19359;51.402;6.778;2023-05-18T04:15:43;480.33;;;129.82;;
7783;SDS011;19359;51.402;6.778;2023-05-18T04:18:13;451.33;;;128.02;;
7783;SDS011;19359;51.402;6.778;2023-05-18T04:20:41;528.05;;;137.77;;
7783;SDS011;19359;51.402;6.778;2023-05-18T04:23:10;629.30;;;149.07;;
7783;SDS011;19359;51.402;6.778;2023-05-18T04:25:37;457.38;;;133.60;;
7783;SDS011;19359;51.402;6.778;2023-05-18T04:28:05;468.33;;;134.80;;
7783;SDS011;19359;51.402;6.778;2023-05-18T04:30:34;461.05;;;132.68;;
7783;SDS011;19359;51.402;6.778;2023-05-18T04:33:02;465.02;;;132.52;;
7783;SDS011;19359;51.402;6.778;2023-05-18T04:35:31;464.08;;;133.70;;
7783;SDS011;19359;51.402;6.778;2023-05-18T04:37:59;483.00;;;137.82;;
7783;SDS011;19359;51.402;6.778;2023-05-18T04:40:26;493.20;;;152.30;;
7783;SDS011;19359;51.402;6.778;2023-05-18T04:42:57;490.98;;;166.82;;
7783;SDS011;19359;51.402;6.778;2023-05-18T04:45:24;410.20;;;128.35;;
7783;SDS011;19359;51.402;6.778;2023-05-18T04:47:52;379.67;;;124.53;;
7783;SDS011;19359;51.402;6.778;2023-05-18T04:50:18;404.50;;;128.48;;
7783;SDS011;19359;51.402;6.778;2023-05-18T04:52:49;410.58;;;129.98;;
7783;SDS011;19359;51.402;6.778;2023-05-18T04:55:16;408.30;;;129.88;;
7783;SDS011;19359;51.402;6.778;2023-05-18T04:57:49;413.75;;;128.50;;
7783;SDS011;19359;51.402;6.778;2023-05-18T05:00:18;385.95;;;128.35;;
7783;SDS011;19359;51.402;6.778;2023-05-18T05:02:45;389.52;;;126.75;;
7783;SDS011;19359;51.402;6.778;2023-05-18T05:05:12;394.92;;;129.32;;
7783;SDS011;19359;51.402;6.778;2023-05-18T05:07:39;401.17;;;132.50;;
7783;SDS011;19359;51.402;6.778;2023-05-18T05:10:08;309.08;;;121.32;;
7783;SDS011;19359;51.402;6.778;2023-05-18T05:12:35;291.75;;;113.93;;
7783;SDS011;19359;51.402;6.778;2023-05-18T05:15:02;423.27;;;136.63;;
7783;SDS011;19359;51.402;6.778;2023-05-18T05:17:30;452.88;;;138.98;;
7783;SDS011;19359;51.402;6.778;2023-05-18T05:19:57;286.83;;;121.20;;
7783;SDS011;19359;51.402;6.778;2023-05-18T05:22:23;306.35;;;127.60;;
7783;SDS011;19359;51.402;6.778;2023-05-18T05:24:50;313.05;;;127.78;;
7783;SDS011;19359;51.402;6.778;2023-05-18T05:27:19;314.95;;;126.97;;
7783;SDS011;19359;51.402;6.778;2023-05-18T05:29:46;397.52;;;146.48;;
7783;SDS011;19359;51.402;6.778;2023-05-18T05:32:15;247.13;;;112.28;;
7783;SDS011;19359;51.402;6.778;2023-05-18T05:34:42;258.35;;;125.97;;
7783;SDS011;19359;51.402;6.778;2023-05-18T05:37:11;319.92;;;131.27;;
7783;SDS011;19359;51.402;6.778;2023-05-18T05:39:39;203.88;;;109.55;;
7783;SDS011;19359;51.402;6.778;2023-05-18T05:42:05;254.25;;;119.60;;
7783;SDS011;19359;51.402;6.778;2023-05-18T05:44:34;281.02;;;126.85;;
7783;SDS011;19359;51.402;6.778;2023-05-18T05:47:01;336.85;;;140.55;;
7783;SDS011;19359;51.402;6.778;2023-05-18T05:49:28;248.32;;;120.30;;
7783;SDS011;19359;51.402;6.778;2023-05-18T05:51:55;313.88;;;131.63;;
7783;SDS011;19359;51.402;6.778;2023-05-18T05:54:22;332.25;;;140.25;;
7783;SDS011;19359;51.402;6.778;2023-05-18T05:56:49;396.00;;;154.48;;
7783;SDS011;19359;51.402;6.778;2023-05-18T05:59:16;434.73;;;169.35;;
7783;SDS011;19359;51.402;6.778;2023-05-18T06:01:44;465.42;;;167.65;;
7783;SDS011;19359;51.402;6.778;2023-05-18T06:04:11;395.58;;;161.90;;
7783;SDS011;19359;51.402;6.778;2023-05-18T06:06:39;455.50;;;178.35;;
7783;SDS011;19359;51.402;6.778;2023-05-18T06:09:07;472.85;;;169.63;;
7783;SDS011;19359;51.402;6.778;2023-05-18T06:11:34;413.73;;;171.93;;
7783;SDS011;19359;51.402;6.778;2023-05-18T06:14:01;250.18;;;142.52;;
7783;SDS011;19359;51.402;6.778;2023-05-18T06:16:28;215.55;;;124.50;;
7783;SDS011;19359;51.402;6.778;2023-05-18T06:18:57;324.85;;;145.32;;
7783;SDS011;19359;51.402;6.778;2023-05-18T06:21:24;309.52;;;145.63;;
7783;SDS011;19359;51.402;6.778;2023-05-18T06:23:51;331.45;;;152.93;;
7783;SDS011;19359;51.402;6.778;2023-05-18T06:26:18;337.25;;;165.50;;
7783;SDS011;19359;51.402;6.778;2023-05-18T06:28:46;266.23;;;142.88;;
7783;SDS011;19359;51.402;6.778;2023-05-18T06:31:13;249.68;;;137.48;;
7783;SDS011;19359;51.402;6.778;2023-05-18T06:33:41;324.25;;;147.93;;
7783;SDS011;19359;51.402;6.778;2023-05-18T06:36:09;342.08;;;155.63;;
7783;SDS011;19359;51.402;6.778;2023-05-18T06:38:36;382.00;;;174.95;;
7783;SDS011;19359;51.402;6.778;2023-05-18T06:41:03;431.77;;;170.57;;
7783;SDS011;19359;51.402;6.778;2023-05-18T06:43:30;463.83;;;212.05;;
7783;SDS011;19359;51.402;6.778;2023-05-18T06:45:57;488.58;;;200.07;;
7783;SDS011;19359;51.402;6.778;2023-05-18T06:48:25;442.95;;;181.45;;
7783;SDS011;19359;51.402;6.778;2023-05-18T06:50:52;500.85;;;208.05;;
7783;SDS011;19359;51.402;6.778;2023-05-18T06:53:21;517.97;;;199.80;;
7783;SDS011;19359;51.402;6.778;2023-05-18T06:55:48;507.05;;;204.88;;
7783;SDS011;19359;51.402;6.778;2023-05-18T06:58:15;565.03;;;209.02;;
7783;SDS011;19359;51.402;6.778;2023-05-18T07:00:42;437.33;;;188.27;;
7783;SDS011;19359;51.402;6.778;2023-05-18T07:03:09;474.52;;;192.98;;
7783;SDS011;19359;51.402;6.778;2023-05-18T07:05:36;510.17;;;213.45;;
7783;SDS011;19359;51.402;6.778;2023-05-18T07:08:03;506.13;;;208.07;;
7783;SDS011;19359;51.402;6.778;2023-05-18T07:10:32;444.15;;;201.43;;
7783;SDS011;19359;51.402;6.778;2023-05-18T07:12:59;511.17;;;213.43;;
7783;SDS011;19359;51.402;6.778;2023-05-18T07:15:26;467.92;;;212.50;;
7783;SDS011;19359;51.402;6.778;2023-05-18T07:17:53;426.52;;;203.23;;
7783;SDS011;19359;51.402;6.778;2023-05-18T07:20:20;332.15;;;196.63;;
7783;SDS011;19359;51.402;6.778;2023-05-18T07:22:47;479.05;;;217.75;;
7783;SDS011;19359;51.402;6.778;2023-05-18T07:25:14;456.85;;;215.82;;
7783;SDS011;19359;51.402;6.778;2023-05-18T07:27:43;473.05;;;218.80;;
7783;SDS011;19359;51.402;6.778;2023-05-18T07:30:10;492.45;;;227.82;;
7783;SDS011;19359;51.402;6.778;2023-05-18T07:32:37;490.63;;;230.35;;
7783;SDS011;19359;51.402;6.778;2023-05-18T07:35:04;508.33;;;233.60;;
7783;SDS011;19359;51.402;6.778;2023-05-18T07:37:31;493.40;;;231.90;;
7783;SDS011;19359;51.402;6.778;2023-05-18T07:39:58;437.88;;;220.77;;
7783;SDS011;19359;51.402;6.778;2023-05-18T07:42:25;446.83;;;237.77;;
7783;SDS011;19359;51.402;6.778;2023-05-18T07:44:53;415.15;;;226.10;;
7783;SDS011;19359;51.402;6.778;2023-05-18T07:47:20;549.83;;;271.15;;
7783;SDS011;19359;51.402;6.778;2023-05-18T07:49:48;457.25;;;265.45;;
7783;SDS011;19359;51.402;6.778;2023-05-18T07:52:15;439.05;;;247.63;;
7783;SDS011;19359;51.402;6.778;2023-05-18T07:54:41;576.90;;;273.55;;
7783;SDS011;19359;51.402;6.778;2023-05-18T07:57:08;534.45;;;263.40;;
7783;SDS011;19359;51.402;6.778;2023-05-18T07:59:36;494.15;;;243.95;;
7783;SDS011;19359;51.402;6.778;2023-05-18T08:02:04;487.52;;;248.27;;
7783;SDS011;19359;51.402;6.778;2023-05-18T08:04:31;504.35;;;241.50;;
7783;SDS011;19359;51.402;6.778;2023-05-18T08:06:58;615.50;;;252.75;;
7783;SDS011;19359;51.402;6.778;2023-05-18T08:09:26;603.00;;;271.23;;
7783;SDS011;19359;51.402;6.778;2023-05-18T08:11:52;510.55;;;246.55;;
7783;SDS011;19359;51.402;6.778;2023-05-18T08:14:19;557.03;;;272.15;;
7783;SDS011;19359;51.402;6.778;2023-05-18T08:16:46;525.63;;;268.70;;
7783;SDS011;19359;51.402;6.778;2023-05-18T08:19:15;530.15;;;276.10;;
7783;SDS011;19359;51.402;6.778;2023-05-18T08:21:41;485.33;;;268.80;;
7783;SDS011;19359;51.402;6.778;2023-05-18T08:24:10;554.95;;;284.35;;
7783;SDS011;19359;51.402;6.778;2023-05-18T08:26:37;541.92;;;310.88;;
7783;SDS011;19359;51.402;6.778;2023-05-18T08:29:04;630.50;;;306.02;;
7783;SDS011;19359;51.402;6.778;2023-05-18T08:31:34;629.33;;;307.98;;
7783;SDS011;19359;51.402;6.778;2023-05-18T08:34:02;635.85;;;308.95;;
7783;SDS011;19359;51.402;6.778;2023-05-18T08:36:31;608.90;;;310.80;;
7783;SDS011;19359;51.402;6.778;2023-05-18T08:38:59;531.38;;;300.13;;
7783;SDS011;19359;51.402;6.778;2023-05-18T08:41:27;519.88;;;302.17;;
7783;SDS011;19359;51.402;6.778;2023-05-18T08:43:58;476.15;;;278.00;;
7783;SDS011;19359;51.402;6.778;2023-05-18T08:46:27;399.73;;;275.80;;
7783;SDS011;19359;51.402;6.778;2023-05-18T08:48:58;395.02;;;267.17;;
7783;SDS011;19359;51.402;6.778;2023-05-18T08:51:27;481.55;;;276.45;;
7783;SDS011;19359;51.402;6.778;2023-05-18T08:53:59;451.65;;;277.38;;
7783;SDS011;19359;51.402;6.778;2023-05-18T08:56:26;481.25;;;291.52;;
7783;SDS011;19359;51.402;6.778;2023-05-18T08:58:57;556.85;;;317.25;;
7783;SDS011;19359;51.402;6.778;2023-05-18T09:01:24;481.40;;;299.02;;
7783;SDS011;19359;51.402;6.778;2023-05-18T09:03:53;560.65;;;317.40;;
7783;SDS011;19359;51.402;6.778;2023-05-18T09:06:20;531.58;;;317.02;;
7783;SDS011;19359;51.402;6.778;2023-05-18T09:08:48;544.05;;;318.20;;
7783;SDS011;19359;51.402;6.778;2023-05-18T09:11:18;556.55;;;324.80;;
7783;SDS011;19359;51.402;6.778;2023-05-18T09:13:47;477.73;;;307.42;;
7783;SDS011;19359;51.402;6.778;2023-05-18T09:16:14;547.38;;;324.92;;
7783;SDS011;19359;51.402;6.778;2023-05-18T09:18:42;524.33;;;311.33;;
7783;SDS011;19359;51.402;6.778;2023-05-18T09:21:09;450.77;;;311.55;;
7783;SDS011;19359;51.402;6.778;2023-05-18T09:23:37;427.25;;;310.50;;
7783;SDS011;19359;51.402;6.778;2023-05-18T09:26:04;463.92;;;329.45;;
7783;SDS011;19359;51.402;6.778;2023-05-18T09:28:36;434.58;;;334.00;;
7783;SDS011;19359;51.402;6.778;2023-05-18T09:31:04;438.75;;;332.33;;
7783;SDS011;19359;51.402;6.778;2023-05-18T09:33:33;491.65;;;352.40;;
7783;SDS011;19359;51.402;6.778;2023-05-18T09:36:02;467.23;;;358.67;;
7783;SDS011;19359;51.402;6.778;2023-05-18T09:38:30;470.95;;;363.17;;
7783;SDS011;19359;51.402;6.778;2023-05-18T09:40:57;477.08;;;370.35;;
7783;SDS011;19359;51.402;6.778;2023-05-18T09:43:25;475.50;;;367.33;;
7783;SDS011;19359;51.402;6.778;2023-05-18T09:45:53;477.02;;;363.85;;
7783;SDS011;19359;51.402;6.778;2023-05-18T09:48:20;475.70;;;363.15;;
7783;SDS011;19359;51.402;6.778;2023-05-18T09:50:48;469.92;;;355.50;;
7783;SDS011;19359;51.402;6.778;2023-05-18T09:53:15;499.42;;;367.27;;
7783;SDS011;19359;51.402;6.778;2023-05-18T09:55:46;509.08;;;374.77;;
7783;SDS011;19359;51.402;6.778;2023-05-18T09:58:13;489.52;;;385.73;;
7783;SDS011;19359;51.402;6.778;2023-05-18T10:00:41;490.45;;;377.50;;
7783;SDS011;19359;51.402;6.778;2023-05-18T10:03:19;498.05;;;379.38;;
7783;SDS011;19359;51.402;6.778;2023-05-18T10:05:47;493.90;;;382.85;;
7783;SDS011;19359;51.402;6.778;2023-05-18T10:08:14;506.38;;;381.63;;
7783;SDS011;19359;51.402;6.778;2023-05-18T10:10:43;457.70;;;381.88;;
7783;SDS011;19359;51.402;6.778;2023-05-18T10:13:14;508.73;;;398.92;;
7783;SDS011;19359;51.402;6.778;2023-05-18T10:15:46;496.20;;;390.83;;
7783;SDS011;19359;51.402;6.778;2023-05-18T10:18:15;487.10;;;393.33;;
7783;SDS011;19359;51.402;6.778;2023-05-18T10:20:47;454.95;;;390.33;;
7783;SDS011;19359;51.402;6.778;2023-05-18T10:23:14;497.50;;;395.00;;
7783;SDS011;19359;51.402;6.778;2023-05-18T10:25:44;504.83;;;397.17;;
7783;SDS011;19359;51.402;6.778;2023-05-18T10:28:11;541.03;;;403.38;;
7783;SDS011;19359;51.402;6.778;2023-05-18T10:30:40;588.47;;;409.08;;
7783;SDS011;19359;51.402;6.778;2023-05-18T10:33:07;573.58;;;413.95;;
7783;SDS011;19359;51.402;6.778;2023-05-18T10:35:36;597.67;;;409.27;;
7783;SDS011;19359;51.402;6.778;2023-05-18T10:38:05;564.40;;;403.33;;
7783;SDS011;19359;51.402;6.778;2023-05-18T10:40:32;565.45;;;400.80;;
7783;SDS011;19359;51.402;6.778;2023-05-18T10:43:02;530.13;;;396.88;;
7783;SDS011;19359;51.402;6.778;2023-05-18T10:45:32;587.38;;;390.75;;
7783;SDS011;19359;51.402;6.778;2023-05-18T10:48:00;575.60;;;387.95;;
7783;SDS011;19359;51.402;6.778;2023-05-18T10:50:27;586.25;;;382.30;;
7783;SDS011;19359;51.402;6.778;2023-05-18T10:52:57;566.95;;;382.55;;
7783;SDS011;19359;51.402;6.778;2023-05-18T10:55:26;568.42;;;387.38;;
7783;SDS011;19359;51.402;6.778;2023-05-18T10:57:54;577.22;;;370.35;;
7783;SDS011;19359;51.402;6.778;2023-05-18T11:00:25;535.05;;;367.65;;
7783;SDS011;19359;51.402;6.778;2023-05-18T11:02:52;515.47;;;371.98;;
7783;SDS011;19359;51.402;6.778;2023-05-18T11:05:22;536.30;;;391.40;;
7783;SDS011;19359;51.402;6.778;2023-05-18T11:07:50;523.05;;;387.40;;
7783;SDS011;19359;51.402;6.778;2023-05-18T11:10:26;546.80;;;398.73;;
7783;SDS011;19359;51.402;6.778;2023-05-18T11:12:59;599.08;;;411.27;;
7783;SDS011;19359;51.402;6.778;2023-05-18T11:18:12;577.20;;;398.17;;
7783;SDS011;19359;51.402;6.778;2023-05-18T11:20:39;515.13;;;407.83;;
7783;SDS011;19359;51.402;6.778;2023-05-18T11:23:06;490.30;;;417.25;;
7783;SDS011;19359;51.402;6.778;2023-05-18T11:25:37;463.95;;;411.50;;
7783;SDS011;19359;51.402;6.778;2023-05-18T11:28:06;471.35;;;419.33;;
7783;SDS011;19359;51.402;6.778;2023-05-18T11:30:47;477.88;;;420.73;;
7783;SDS011;19359;51.402;6.778;2023-05-18T11:33:17;544.30;;;444.25;;
7783;SDS011;19359;51.402;6.778;2023-05-18T11:35:53;538.38;;;452.90;;
7783;SDS011;19359;51.402;6.778;2023-05-18T11:38:20;530.58;;;453.10;;
7783;SDS011;19359;51.402;6.778;2023-05-18T11:40:49;578.78;;;453.23;;
7783;SDS011;19359;51.402;6.778;2023-05-18T11:43:18;657.30;;;481.23;;
7783;SDS011;19359;51.402;6.778;2023-05-18T11:45:52;561.95;;;438.98;;
7783;SDS011;19359;51.402;6.778;2023-05-18T11:48:20;568.33;;;436.83;;
7783;SDS011;19359;51.402;6.778;2023-05-18T11:50:47;613.13;;;444.88;;
7783;SDS011;19359;51.402;6.778;2023-05-18T11:53:15;511.08;;;436.58;;
7783;SDS011;19359;51.402;6.778;2023-05-18T11:55:42;604.35;;;459.73;;
7783;SDS011;19359;51.402;6.778;2023-05-18T11:58:11;622.45;;;463.42;;
7783;SDS011;19359;51.402;6.778;2023-05-18T12:00:43;649.20;;;464.65;;
7783;SDS011;19359;51.402;6.778;2023-05-18T12:03:11;624.92;;;464.52;;
7783;SDS011;19359;51.402;6.778;2023-05-18T12:05:39;654.67;;;458.65;;
7783;SDS011;19359;51.402;6.778;2023-05-18T12:08:08;615.00;;;472.00;;
7783;SDS011;19359;51.402;6.778;2023-05-18T12:10:35;586.67;;;487.50;;
7783;SDS011;19359;51.402;6.778;2023-05-18T12:13:04;583.80;;;500.98;;
7783;SDS011;19359;51.402;6.778;2023-05-18T12:15:32;586.03;;;517.80;;
7783;SDS011;19359;51.402;6.778;2023-05-18T12:18:01;574.45;;;513.30;;
7783;SDS011;19359;51.402;6.778;2023-05-18T12:20:28;585.88;;;523.92;;
7783;SDS011;19359;51.402;6.778;2023-05-18T12:22:55;580.28;;;517.17;;
7783;SDS011;19359;51.402;6.778;2023-05-18T12:25:23;600.72;;;536.83;;
7783;SDS011;19359;51.402;6.778;2023-05-18T12:27:51;613.20;;;530.00;;
7783;SDS011;19359;51.402;6.778;2023-05-18T12:30:19;604.25;;;538.10;;
7783;SDS011;19359;51.402;6.778;2023-05-18T12:32:49;629.97;;;537.53;;
7783;SDS011;19359;51.402;6.778;2023-05-18T12:35:17;593.28;;;524.28;;
7783;SDS011;19359;51.402;6.778;2023-05-18T12:37:47;641.65;;;546.15;;
7783;SDS011;19359;51.402;6.778;2023-05-18T12:40:15;640.20;;;554.15;;
7783;SDS011;19359;51.402;6.778;2023-05-18T12:42:49;666.83;;;554.63;;
7783;SDS011;19359;51.402;6.778;2023-05-18T12:45:17;632.67;;;556.05;;
7783;SDS011;19359;51.402;6.778;2023-05-18T12:47:45;689.17;;;562.30;;
7783;SDS011;19359;51.402;6.778;2023-05-18T12:50:19;708.60;;;578.08;;
7783;SDS011;19359;51.402;6.778;2023-05-18T12:52:46;663.33;;;583.60;;
7783;SDS011;19359;51.402;6.778;2023-05-18T12:55:14;657.92;;;587.22;;
7783;SDS011;19359;51.402;6.778;2023-05-18T12:57:45;727.05;;;596.58;;
7783;SDS011;19359;51.402;6.778;2023-05-18T13:00:23;717.45;;;590.95;;
7783;SDS011;19359;51.402;6.778;2023-05-18T13:02:50;673.75;;;603.78;;
7783;SDS011;19359;51.402;6.778;2023-05-18T13:05:22;696.58;;;605.58;;
7783;SDS011;19359;51.402;6.778;2023-05-18T13:07:50;732.80;;;605.20;;
7783;SDS011;19359;51.402;6.778;2023-05-18T13:10:17;714.58;;;608.75;;
7783;SDS011;19359;51.402;6.778;2023-05-18T13:12:44;700.95;;;623.88;;
7783;SDS011;19359;51.402;6.778;2023-05-18T13:15:13;703.38;;;627.05;;
7783;SDS011;19359;51.402;6.778;2023-05-18T13:20:34;723.60;;;637.47;;
7783;SDS011;19359;51.402;6.778;2023-05-18T13:23:01;750.70;;;639.65;;
7783;SDS011;19359;51.402;6.778;2023-05-18T13:25:30;779.05;;;643.45;;
7783;SDS011;19359;51.402;6.778;2023-05-18T13:27:57;783.95;;;649.75;;
7783;SDS011;19359;51.402;6.778;2023-05-18T13:30:24;739.88;;;644.42;;
7783;SDS011;19359;51.402;6.778;2023-05-18T13:32:51;789.40;;;659.55;;
7783;SDS011;19359;51.402;6.778;2023-05-18T13:35:18;754.70;;;669.22;;
7783;SDS011;19359;51.402;6.778;2023-05-18T13:37:47;818.63;;;671.17;;
7783;SDS011;19359;51.402;6.778;2023-05-18T13:40:14;827.83;;;682.40;;
7783;SDS011;19359;51.402;6.778;2023-05-18T13:42:42;800.35;;;671.70;;
7783;SDS011;19359;51.402;6.778;2023-05-18T13:45:09;827.55;;;669.78;;
7783;SDS011;19359;51.402;6.778;2023-05-18T13:47:36;790.08;;;688.40;;
7783;SDS011;19359;51.402;6.778;2023-05-18T13:50:04;781.40;;;699.63;;
7783;SDS011;19359;51.402;6.778;2023-05-18T13:52:31;782.97;;;704.33;;
7783;SDS011;19359;51.402;6.778;2023-05-18T13:55:00;758.40;;;693.95;;
7783;SDS011;19359;51.402;6.778;2023-05-18T13:57:28;768.60;;;702.80;;
7783;SDS011;19359;51.402;6.778;2023-05-18T13:59:56;642.85;;;589.85;;
7783;SDS011;19359;51.402;6.778;2023-05-18T14:02:23;801.05;;;725.15;;
7783;SDS011;19359;51.402;6.778;2023-05-18T14:04:50;798.60;;;720.42;;
7783;SDS011;19359;51.402;6.778;2023-05-18T14:07:17;787.58;;;712.78;;
7783;SDS011;19359;51.402;6.778;2023-05-18T14:09:44;784.95;;;711.88;;
7783;SDS011;19359;51.402;6.778;2023-05-18T14:12:12;771.58;;;701.22;;
7783;SDS011;19359;51.402;6.778;2023-05-18T14:14:39;702.65;;;645.00;;
7783;SDS011;19359;51.402;6.778;2023-05-18T14:17:07;752.47;;;691.22;;
7783;SDS011;19359;51.402;6.778;2023-05-18T14:19:34;825.22;;;748.50;;